Time;durP1;ratioP1;P1;durP2;ratioP2;P2;SDS_P1;SDS_P2;PMS_P1;PMS_P2;Temp;Humidity;BMP_temperature;BMP_pressure;BME280_temperature;BME280_humidity;BME280_pressure;Samples;Min_cycle;Max_cycle;Signal;HPM_P1;HPM_P2
2022/04/28 00:00:33;;;;;;;31.20;13.43;;;;;;;-145.18;100.00;60484.78;5021162;28;20107;-70
2022/04/28 00:02:58;;;;;;;32.23;14.03;;;;;;;-145.18;100.00;60484.78;5026693;28;20033;-70
2022/04/28 00:05:24;;;;;;;35.97;12.83;;;;;;;-145.18;100.00;60484.78;5019889;28;20048;-70
2022/04/28 00:07:50;;;;;;;32.73;13.20;;;;;;;-145.18;100.00;60484.78;5026298;28;20021;-70
2022/04/28 00:10:16;;;;;;;36.43;13.33;;;;;;;-145.18;100.00;60484.78;5020038;28;20218;-70
2022/04/28 00:12:42;;;;;;;34.50;13.67;;;;;;;-145.18;100.00;60484.78;5021741;28;20029;-70
2022/04/28 00:15:08;;;;;;;34.77;13.67;;;;;;;-145.18;100.00;60484.78;5026640;28;20579;-70
2022/04/28 00:17:33;;;;;;;31.93;14.80;;;;;;;-145.18;100.00;60484.78;5024353;28;20037;-70
2022/04/28 00:19:59;;;;;;;31.93;13.93;;;;;;;-145.18;100.00;60484.78;5022718;28;20029;-70
2022/04/28 00:22:24;;;;;;;34.27;15.23;;;;;;;-145.18;100.00;60484.78;5021398;28;20029;-70
2022/04/28 00:24:50;;;;;;;35.93;14.77;;;;;;;-145.18;100.00;60484.78;5019319;28;20033;-70
2022/04/28 00:27:16;;;;;;;40.07;16.13;;;;;;;-145.18;100.00;60484.78;5014548;28;20036;-70
2022/04/28 00:29:41;;;;;;;34.63;14.73;;;;;;;-145.18;100.00;60484.78;5011871;28;20029;-70
2022/04/28 00:32:07;;;;;;;39.40;14.37;;;;;;;-145.18;100.00;60484.78;5021466;28;20032;-70
2022/04/28 00:34:33;;;;;;;40.90;15.20;;;;;;;-145.18;100.00;60484.78;5021809;28;20075;-70
2022/04/28 00:36:58;;;;;;;36.40;15.73;;;;;;;-145.18;100.00;60484.78;5029644;28;20028;-70
2022/04/28 00:39:24;;;;;;;42.33;16.93;;;;;;;-145.18;100.00;60484.78;5017503;28;20041;-70
2022/04/28 00:41:49;;;;;;;38.20;16.23;;;;;;;-145.18;100.00;60484.78;5029940;28;20479;-70
2022/04/28 00:44:15;;;;;;;42.90;15.97;;;;;;;-145.18;100.00;60484.78;5023694;28;20032;-70
2022/04/28 00:46:43;;;;;;;36.20;15.63;;;;;;;-145.18;100.00;60484.78;5012381;28;20059;-70
2022/04/28 00:51:54;;;;;;;41.80;15.83;;;;;;;-145.18;100.00;60484.78;5010994;28;20096;-70
2022/04/28 00:54:21;;;;;;;43.60;16.23;;;;;;;-145.18;100.00;60484.78;5015938;28;20145;-70
2022/04/28 00:56:46;;;;;;;48.37;17.20;;;;;;;-145.18;100.00;60484.78;5012269;28;20033;-70
2022/04/28 00:59:12;;;;;;;48.70;17.00;;;;;;;-145.18;100.00;60484.78;5011154;28;20033;-70
2022/04/28 01:01:38;;;;;;;50.83;16.80;;;;;;;-145.18;100.00;60484.78;5010457;28;20017;-70
2022/04/28 01:04:03;;;;;;;48.00;17.10;;;;;;;-145.18;100.00;60484.78;5025747;28;20029;-70
2022/04/28 01:06:29;;;;;;;43.13;16.93;;;;;;;-145.18;100.00;60484.78;5024081;28;20044;-70
2022/04/28 01:08:57;;;;;;;41.93;17.67;;;;;;;-145.18;100.00;60484.78;5024313;28;20057;-70
2022/04/28 01:11:22;;;;;;;40.97;16.63;;;;;;;-145.18;100.00;60484.78;5020735;28;20110;-70
2022/04/28 01:13:48;;;;;;;39.60;16.13;;;;;;;-145.18;100.00;60484.78;5024281;28;20041;-70
2022/04/28 01:16:13;;;;;;;42.93;15.80;;;;;;;-145.18;100.00;60484.78;5022941;28;20072;-70
2022/04/28 01:18:39;;;;;;;38.17;15.90;;;;;;;-145.18;100.00;60484.78;5023980;28;20033;-70
2022/04/28 01:21:06;;;;;;;39.83;15.83;;;;;;;-145.18;100.00;60484.78;5023042;28;20026;-70
2022/04/28 01:23:33;;;;;;;46.97;16.83;;;;;;;-145.18;100.00;60484.78;5004041;28;20033;-70
2022/04/28 01:25:59;;;;;;;44.57;16.27;;;;;;;-145.18;100.00;60484.78;5021590;28;20049;-70
2022/04/28 01:28:26;;;;;;;44.13;15.97;;;;;;;-145.18;100.00;60484.78;5019975;28;20029;-70
2022/04/28 01:30:52;;;;;;;42.83;17.87;;;;;;;-145.18;100.00;60484.78;5016858;28;20037;-70
2022/04/28 01:33:17;;;;;;;43.80;17.03;;;;;;;-145.18;100.00;60484.78;5022538;28;20037;-70
2022/04/28 01:35:43;;;;;;;38.97;16.33;;;;;;;-145.18;100.00;60484.78;5027154;28;20032;-70
2022/04/28 01:38:08;;;;;;;48.73;17.50;;;;;;;-145.18;100.00;60484.78;5022013;28;20481;-70
2022/04/28 01:40:33;;;;;;;44.70;17.80;;;;;;;-145.18;100.00;60484.78;5020243;28;20136;-70
2022/04/28 01:42:59;;;;;;;43.43;18.20;;;;;;;-145.18;100.00;60484.78;5010341;28;20202;-70
2022/04/28 01:45:24;;;;;;;51.37;18.30;;;;;;;-145.18;100.00;60484.78;4996223;28;20031;-70
2022/04/28 01:47:49;;;;;;;50.93;20.03;;;;;;;-145.18;100.00;60484.78;5016316;28;20036;-70
2022/04/28 01:50:15;;;;;;;52.27;20.37;;;;;;;-145.18;100.00;60484.78;5009965;28;20498;-70
2022/04/28 01:55:24;;;;;;;62.67;23.83;;;;;;;-145.18;100.00;60484.78;5016253;28;20041;-70
2022/04/28 01:57:50;;;;;;;57.47;21.43;;;;;;;-145.18;100.00;60484.78;5026653;28;20724;-70
2022/04/28 02:00:16;;;;;;;57.90;21.60;;;;;;;-145.18;100.00;60484.78;5027231;28;20034;-70
2022/04/28 02:02:42;;;;;;;61.03;22.27;;;;;;;-145.18;100.00;60484.78;5025121;28;20037;-69
2022/04/28 02:05:09;;;;;;;56.33;20.93;;;;;;;-145.18;100.00;60484.78;5026625;28;20454;-70
2022/04/28 02:07:35;;;;;;;58.03;22.37;;;;;;;-145.18;100.00;60484.78;5026379;28;20033;-70
2022/04/28 02:10:02;;;;;;;66.13;23.90;;;;;;;-145.18;100.00;60484.78;5010307;28;20781;-70
2022/04/28 02:12:28;;;;;;;51.87;21.13;;;;;;;-145.18;100.00;60484.78;5028515;28;20482;-70
2022/04/28 02:14:54;;;;;;;53.20;19.87;;;;;;;-145.18;100.00;60484.78;5012591;28;20036;-70
2022/04/28 02:17:20;;;;;;;62.87;21.37;;;;;;;-145.18;100.00;60484.78;5008495;28;20044;-70
2022/04/28 02:19:46;;;;;;;49.80;19.60;;;;;;;-145.18;100.00;60484.78;5016886;28;20036;-71
2022/04/28 02:22:11;;;;;;;46.07;19.77;;;;;;;-145.18;100.00;60484.78;5024503;28;20038;-70
2022/04/28 02:24:37;;;;;;;56.10;19.90;;;;;;;-145.18;100.00;60484.78;5029385;28;20028;-71
2022/04/28 02:27:02;;;;;;;61.90;22.90;;;;;;;-145.18;100.00;60484.78;5032707;28;20060;-70
2022/04/28 02:29:28;;;;;;;62.37;23.60;;;;;;;-145.18;100.00;60484.78;5028507;28;20037;-70
2022/04/28 02:31:53;;;;;;;54.70;22.07;;;;;;;-145.18;100.00;60484.78;5029923;28;20088;-70
2022/04/28 02:34:19;;;;;;;56.27;22.47;;;;;;;-145.18;100.00;60484.78;5029125;28;20045;-71
2022/04/28 02:36:44;;;;;;;56.80;21.63;;;;;;;-145.18;100.00;60484.78;5032083;28;20033;-71
2022/04/28 02:39:10;;;;;;;62.63;24.20;;;;;;;-145.18;100.00;60484.78;5030395;28;20039;-71
2022/04/28 02:41:36;;;;;;;61.53;23.50;;;;;;;-145.18;100.00;60484.78;5032228;28;20049;-71
2022/04/28 02:44:02;;;;;;;53.40;21.47;;;;;;;-145.18;100.00;60484.78;5029631;28;20026;-72
2022/04/28 02:46:29;;;;;;;62.83;22.80;;;;;;;-145.18;100.00;60484.78;5030540;28;20174;-70
2022/04/28 02:48:54;;;;;;;55.27;21.20;;;;;;;-145.18;100.00;60484.78;5027963;28;20041;-70
2022/04/28 02:51:19;;;;;;;59.63;22.13;;;;;;;-145.18;100.00;60484.78;5028788;28;20033;-70
2022/04/28 02:53:45;;;;;;;58.67;21.87;;;;;;;-145.18;100.00;60484.78;5031526;28;20096;-69
2022/04/28 02:56:10;;;;;;;45.80;18.53;;;;;;;-145.18;100.00;60484.78;5026247;28;20037;-70
2022/04/28 02:58:36;;;;;;;50.23;20.70;;;;;;;-145.18;100.00;60484.78;5023118;28;20573;-70
2022/04/28 03:01:02;;;;;;;52.60;20.97;;;;;;;-145.18;100.00;60484.78;5015885;28;20419;-70
2022/04/28 03:03:27;;;;;;;62.23;24.57;;;;;;;-145.18;100.00;60484.78;5023560;28;20425;-69
2022/04/28 03:11:21;;;;;;;69.73;22.60;;;;;;;-145.18;100.00;60484.78;5030016;28;20056;-69
2022/04/28 03:13:47;;;;;;;56.87;24.63;;;;;;;-145.18;100.00;60484.78;5025200;28;20394;-70
2022/04/28 03:16:13;;;;;;;57.03;22.37;;;;;;;-145.18;100.00;60484.78;5029123;28;20071;-70
2022/04/28 03:18:38;;;;;;;58.97;23.07;;;;;;;-145.18;100.00;60484.78;5031736;28;20057;-69
2022/04/28 03:21:05;;;;;;;56.73;24.17;;;;;;;-145.18;100.00;60484.78;5028701;28;20021;-69
2022/04/28 03:23:30;;;;;;;51.50;23.77;;;;;;;-145.18;100.00;60484.78;5031863;28;20040;-70
2022/04/28 03:25:56;;;;;;;50.83;21.60;;;;;;;-145.18;100.00;60484.78;5028243;28;20034;-69
2022/04/28 03:28:22;;;;;;;59.73;23.97;;;;;;;-145.18;100.00;60484.78;5030498;28;20549;-69
2022/04/28 03:30:48;;;;;;;58.87;25.47;;;;;;;-145.18;100.00;60484.78;5030746;28;20159;-69
2022/04/28 03:33:15;;;;;;;65.13;24.23;;;;;;;-145.18;100.00;60484.78;5021332;28;20037;-69
2022/04/28 03:35:40;;;;;;;58.60;24.53;;;;;;;-145.18;100.00;60484.78;5013349;28;20041;-69
2022/04/28 03:38:11;;;;;;;59.60;24.57;;;;;;;-145.18;100.00;60484.78;5014761;28;20041;-69
2022/04/28 03:40:37;;;;;;;56.57;23.33;;;;;;;-145.18;100.00;60484.78;5014782;28;20734;-69
2022/04/28 03:43:03;;;;;;;55.40;23.43;;;;;;;-145.18;100.00;60484.78;5026580;28;20036;-69
2022/04/28 03:45:28;;;;;;;58.60;22.97;;;;;;;-145.18;100.00;60484.78;5020608;28;20465;-70
2022/04/28 03:47:55;;;;;;;60.40;22.33;;;;;;;-145.18;100.00;60484.78;5019165;28;20033;-69
2022/04/28 03:50:21;;;;;;;56.83;24.17;;;;;;;-145.18;100.00;60484.78;5017563;28;20033;-69
2022/04/28 03:52:46;;;;;;;47.60;20.93;;;;;;;-145.18;100.00;60484.78;5026596;28;20025;-69
2022/04/28 03:55:11;;;;;;;56.23;21.57;;;;;;;-145.18;100.00;60484.78;5026032;28;20049;-69
2022/04/28 03:57:37;;;;;;;50.90;20.70;;;;;;;-145.18;100.00;60484.78;5022854;28;20025;-69
2022/04/28 04:00:06;;;;;;;50.30;22.07;;;;;;;-145.18;100.00;60484.78;5024474;28;20030;-69
2022/04/28 04:02:31;;;;;;;54.10;21.47;;;;;;;-145.18;100.00;60484.78;5023227;28;20038;-69
2022/04/28 04:04:56;;;;;;;46.93;21.03;;;;;;;-145.18;100.00;60484.78;5028429;28;20025;-69
2022/04/28 04:07:22;;;;;;;61.67;23.37;;;;;;;-145.18;100.00;60484.78;5030801;28;20832;-69
2022/04/28 04:09:48;;;;;;;57.70;22.97;;;;;;;-145.18;100.00;60484.78;5029285;28;20029;-69
2022/04/28 04:12:13;;;;;;;50.73;21.80;;;;;;;-145.18;100.00;60484.78;5020923;28;20030;-69
2022/04/28 04:14:38;;;;;;;55.13;22.07;;;;;;;-145.18;100.00;60484.78;5007149;28;20018;-68
2022/04/28 04:17:05;;;;;;;59.30;22.93;;;;;;;-145.18;100.00;60484.78;5030390;28;20191;-70
2022/04/28 04:19:30;;;;;;;57.00;21.80;;;;;;;-145.18;100.00;60484.78;5020617;28;20065;-69
2022/04/28 04:21:56;;;;;;;57.47;20.60;;;;;;;-145.18;100.00;60484.78;5016950;28;20118;-69
2022/04/28 04:24:21;;;;;;;49.73;20.73;;;;;;;-145.18;100.00;60484.78;5028936;28;20034;-70
2022/04/28 04:26:46;;;;;;;53.57;20.60;;;;;;;-145.18;100.00;60484.78;5030798;28;20469;-69
2022/04/28 04:29:12;;;;;;;56.53;21.83;;;;;;;-145.18;100.00;60484.78;5014763;28;20033;-69
2022/04/28 04:34:22;;;;;;;53.60;20.30;;;;;;;-145.18;100.00;60484.78;5014575;28;20126;-69
2022/04/28 04:36:48;;;;;;;48.80;19.30;;;;;;;-145.18;100.00;60484.78;5012277;28;20124;-69
2022/04/28 04:39:13;;;;;;;42.93;19.40;;;;;;;-145.18;100.00;60484.78;5025659;28;20112;-69
2022/04/28 04:41:38;;;;;;;45.30;17.87;;;;;;;-145.18;100.00;60484.78;5025324;28;20033;-69
2022/04/28 04:44:13;;;;;;;50.77;18.40;;;;;;;-145.18;100.00;60484.78;5025758;28;20021;-69
2022/04/28 04:46:40;;;;;;;45.37;18.77;;;;;;;-145.18;100.00;60484.78;5027386;28;20071;-69
2022/04/28 04:49:06;;;;;;;37.03;17.13;;;;;;;-145.18;100.00;60484.78;5017974;28;20099;-69
2022/04/28 04:51:31;;;;;;;38.17;15.30;;;;;;;-145.18;100.00;60484.78;5025655;28;20041;-69
2022/04/28 04:53:56;;;;;;;32.43;14.43;;;;;;;-145.18;100.00;60484.78;5028595;28;20037;-69
2022/04/28 04:56:22;;;;;;;32.90;13.70;;;;;;;-145.18;100.00;60484.78;5023395;28;20117;-69
2022/04/28 04:58:47;;;;;;;26.93;13.40;;;;;;;-145.18;100.00;60484.78;5024445;28;20049;-69
2022/04/28 05:01:12;;;;;;;26.53;11.63;;;;;;;-145.18;100.00;60484.78;5019834;28;20481;-69
2022/04/28 05:03:38;;;;;;;25.40;12.20;;;;;;;-145.18;100.00;60484.78;5020644;28;20067;-69
2022/04/28 05:06:03;;;;;;;25.63;11.30;;;;;;;-145.18;100.00;60484.78;5017007;28;20195;-68
2022/04/28 05:08:29;;;;;;;21.27;11.50;;;;;;;-145.18;100.00;60484.78;5031633;28;20029;-69
2022/04/28 05:10:55;;;;;;;27.97;11.27;;;;;;;-145.18;100.00;60484.78;5025337;28;20030;-69
2022/04/28 05:13:20;;;;;;;27.03;11.27;;;;;;;-145.18;100.00;60484.78;5014569;28;20025;-68
2022/04/28 05:15:47;;;;;;;24.50;10.97;;;;;;;-145.18;100.00;60484.78;5031138;28;20030;-68
2022/04/28 05:18:12;;;;;;;28.70;11.13;;;;;;;-145.18;100.00;60484.78;5030653;28;20056;-68
2022/04/28 05:20:38;;;;;;;24.63;10.23;;;;;;;-145.18;100.00;60484.78;5026592;28;20037;-69
2022/04/28 05:23:03;;;;;;;22.17;9.90;;;;;;;-145.18;100.00;60484.78;5033423;28;20033;-68
2022/04/28 05:25:29;;;;;;;24.40;10.87;;;;;;;-145.18;100.00;60484.78;5035604;28;20021;-69
2022/04/28 05:27:54;;;;;;;23.93;10.20;;;;;;;-145.18;100.00;60484.78;5032066;28;20469;-68
2022/04/28 05:30:20;;;;;;;20.53;10.30;;;;;;;-145.18;100.00;60484.78;5027950;28;20474;-68
2022/04/28 05:32:46;;;;;;;26.90;9.80;;;;;;;-145.18;100.00;60484.78;5027752;28;20060;-69
2022/04/28 05:35:11;;;;;;;24.20;9.87;;;;;;;-145.18;100.00;60484.78;5020842;28;20053;-68
2022/04/28 05:37:37;;;;;;;20.67;9.33;;;;;;;-145.18;100.00;60484.78;5027057;28;20037;-68
2022/04/28 05:40:05;;;;;;;24.10;9.80;;;;;;;-145.18;100.00;60484.78;5026607;28;20029;-68
2022/04/28 05:47:58;;;;;;;19.03;8.70;;;;;;;-145.18;100.00;60484.78;5023139;28;20615;-68
2022/04/28 05:50:24;;;;;;;25.63;9.27;;;;;;;-145.18;100.00;60484.78;5018485;28;20029;-68
2022/04/28 05:52:49;;;;;;;19.30;9.20;;;;;;;-145.18;100.00;60484.78;5026352;28;20029;-69
2022/04/28 05:55:15;;;;;;;24.23;8.70;;;;;;;-145.18;100.00;60484.78;5029555;28;20116;-68
2022/04/28 05:57:40;;;;;;;15.90;8.80;;;;;;;-145.18;100.00;60484.78;5030475;28;20282;-68
2022/04/28 06:00:07;;;;;;;17.20;8.13;;;;;;;-145.18;100.00;60484.78;5021038;28;20057;-68
2022/04/28 06:02:33;;;;;;;21.43;8.07;;;;;;;-145.18;100.00;60484.78;5025939;28;20036;-69
2022/04/28 06:05:00;;;;;;;21.87;8.47;;;;;;;-145.18;100.00;60484.78;5022376;28;20029;-69
2022/04/28 06:07:25;;;;;;;17.90;7.30;;;;;;;-145.18;100.00;60484.78;5029768;28;20094;-69
2022/04/28 06:09:51;;;;;;;15.95;7.68;;;;;;;-145.18;100.00;60484.78;5023345;28;20124;-68
2022/04/28 06:12:17;;;;;;;16.27;6.90;;;;;;;-145.18;100.00;60484.78;5020491;28;20029;-69
2022/04/28 06:14:43;;;;;;;16.10;6.30;;;;;;;-145.18;100.00;60484.78;5023531;28;20416;-69
2022/04/28 06:17:08;;;;;;;12.82;5.85;;;;;;;-145.18;100.00;60484.78;5018674;28;20041;-69
2022/04/28 06:19:34;;;;;;;15.52;5.93;;;;;;;-145.18;100.00;60484.78;5024308;28;20030;-69
2022/04/28 06:21:59;;;;;;;15.13;6.30;;;;;;;-145.18;100.00;60484.78;5012210;28;20036;-69
2022/04/28 06:24:25;;;;;;;12.73;5.60;;;;;;;-145.18;100.00;60484.78;5028367;28;20064;-69
2022/04/28 06:26:51;;;;;;;13.38;5.45;;;;;;;-145.18;100.00;60484.78;5030219;28;20025;-69
2022/04/28 06:29:16;;;;;;;12.20;5.65;;;;;;;-145.18;100.00;60484.78;5029730;28;20040;-69
2022/04/28 06:31:42;;;;;;;12.80;5.43;;;;;;;-145.18;100.00;60484.78;5028486;28;20025;-69
2022/04/28 06:34:07;;;;;;;13.43;4.97;;;;;;;-145.18;100.00;60484.78;5028260;28;20030;-68
2022/04/28 06:36:34;;;;;;;15.43;5.50;;;;;;;-145.18;100.00;60484.78;5016450;28;20389;-68
2022/04/28 06:39:02;;;;;;;12.18;4.97;;;;;;;-145.18;100.00;60484.78;5029952;28;20064;-68
2022/04/28 06:41:27;;;;;;;11.95;4.40;;;;;;;-145.18;100.00;60484.78;5015408;28;20477;-68
2022/04/28 06:43:53;;;;;;;11.45;4.93;;;;;;;-145.18;100.00;60484.78;5031426;28;20040;-68
2022/04/28 06:46:18;;;;;;;12.65;4.30;;;;;;;-145.18;100.00;60484.78;5033199;28;20032;-68
2022/04/28 06:48:47;;;;;;;13.45;4.40;;;;;;;-145.18;100.00;60484.78;5024113;28;20057;-68
2022/04/28 06:51:12;;;;;;;13.13;5.20;;;;;;;-145.18;100.00;60484.78;5028728;28;20116;-68
2022/04/28 06:53:38;;;;;;;13.05;4.90;;;;;;;-145.18;100.00;60484.78;5033818;28;20037;-68
2022/04/28 06:56:04;;;;;;;10.43;4.57;;;;;;;-145.18;100.00;60484.78;5018273;28;20037;-68
2022/04/28 06:58:29;;;;;;;14.48;4.50;;;;;;;-145.18;100.00;60484.78;5031310;28;20079;-68
2022/04/28 07:00:55;;;;;;;10.27;4.57;;;;;;;-145.18;100.00;60484.78;5028139;28;20026;-68
2022/04/28 07:03:20;;;;;;;7.13;2.65;;;;;;;-145.18;100.00;60484.78;5032184;28;20044;-68
2022/04/28 07:05:46;;;;;;;11.90;3.40;;;;;;;-145.18;100.00;60484.78;5018028;28;20037;-68
2022/04/28 07:08:11;;;;;;;13.40;3.10;;;;;;;-145.18;100.00;60484.78;5031299;28;20061;-68
2022/04/28 07:10:38;;;;;;;14.07;3.17;;;;;;;-145.18;100.00;60484.78;5032708;28;20033;-68
2022/04/28 07:13:03;;;;;;;11.50;3.70;;;;;;;-145.18;100.00;60484.78;5030474;28;20110;-68
2022/04/28 07:15:29;;;;;;;10.13;3.08;;;;;;;-145.18;100.00;60484.78;5032916;28;20029;-68
2022/04/28 07:17:54;;;;;;;11.02;3.42;;;;;;;-145.18;100.00;60484.78;5032579;28;20083;-68
2022/04/28 07:20:20;;;;;;;8.52;3.67;;;;;;;-145.18;100.00;60484.78;5024709;28;20037;-68
2022/04/28 07:22:45;;;;;;;9.82;3.75;;;;;;;-145.18;100.00;60484.78;5014736;28;20032;-68
2022/04/28 07:25:10;;;;;;;13.20;3.42;;;;;;;-145.18;100.00;60484.78;5025944;28;20490;-68
2022/04/28 07:27:36;;;;;;;11.70;4.40;;;;;;;-145.18;100.00;60484.78;5010525;28;20040;-68
2022/04/28 07:30:03;;;;;;;12.10;4.28;;;;;;;-145.18;100.00;60484.78;5033023;28;20362;-68
2022/04/28 07:32:28;;;;;;;12.85;3.42;;;;;;;-145.18;100.00;60484.78;5032692;28;20036;-68
2022/04/28 07:34:54;;;;;;;12.13;3.15;;;;;;;-145.18;100.00;60484.78;5025346;28;20050;-68
2022/04/28 07:37:19;;;;;;;9.50;3.33;;;;;;;-145.18;100.00;60484.78;5013049;28;20049;-68
2022/04/28 07:39:45;;;;;;;15.52;4.20;;;;;;;-145.18;100.00;60484.78;5028396;28;20040;-69
2022/04/28 07:42:10;;;;;;;14.20;4.38;;;;;;;-145.18;100.00;60484.78;5032311;28;20072;-68
2022/04/28 07:44:36;;;;;;;11.18;4.30;;;;;;;-145.18;100.00;60484.78;5031263;28;20017;-69
2022/04/28 07:47:01;;;;;;;17.65;4.32;;;;;;;-145.18;100.00;60484.78;5027649;28;20068;-69
2022/04/28 07:49:27;;;;;;;15.10;4.80;;;;;;;-145.18;100.00;60484.78;5023074;28;20033;-69
2022/04/28 07:51:52;;;;;;;9.40;4.32;;;;;;;-145.18;100.00;60484.78;5028955;28;20493;-69
2022/04/28 07:54:17;;;;;;;10.30;4.97;;;;;;;-145.18;100.00;60484.78;5029838;28;20383;-69
2022/04/28 07:56:45;;;;;;;12.63;4.97;;;;;;;-145.18;100.00;60484.78;5031392;28;20116;-69
2022/04/28 07:59:11;;;;;;;9.45;4.72;;;;;;;-145.18;100.00;60484.78;5031156;28;20033;-69
2022/04/28 08:01:37;;;;;;;10.43;4.85;;;;;;;-145.18;100.00;60484.78;5024513;28;20116;-69
2022/04/28 08:04:02;;;;;;;11.13;4.90;;;;;;;-145.18;100.00;60484.78;5030139;28;20104;-69
2022/04/28 08:06:27;;;;;;;9.93;4.68;;;;;;;-145.18;100.00;60484.78;5030139;28;20432;-68
2022/04/28 08:08:53;;;;;;;11.82;4.65;;;;;;;-145.18;100.00;60484.78;5032759;28;20102;-68
2022/04/28 08:11:18;;;;;;;11.20;5.22;;;;;;;-145.18;100.00;60484.78;5025130;28;20052;-68
2022/04/28 08:13:44;;;;;;;14.05;4.80;;;;;;;-145.18;100.00;60484.78;5030305;28;20147;-68
2022/04/28 08:16:09;;;;;;;8.27;4.53;;;;;;;-145.18;100.00;60484.78;5030121;28;20025;-68
2022/04/28 08:18:37;;;;;;;10.93;4.90;;;;;;;-145.18;100.00;60484.78;5030969;28;20251;-68
2022/04/28 08:21:03;;;;;;;11.68;4.32;;;;;;;-145.18;100.00;60484.78;5007319;28;20489;-68
2022/04/28 08:23:29;;;;;;;9.73;4.13;;;;;;;-145.18;100.00;60484.78;5029577;28;20029;-68
2022/04/28 08:25:54;;;;;;;8.70;3.70;;;;;;;-145.18;100.00;60484.78;5028238;28;20029;-68
2022/04/28 08:28:20;;;;;;;10.02;4.25;;;;;;;-145.18;100.00;60484.78;5031064;28;20060;-68
2022/04/28 08:30:45;;;;;;;9.93;4.15;;;;;;;-145.18;100.00;60484.78;5016250;28;20034;-68
2022/04/28 08:33:11;;;;;;;9.68;3.90;;;;;;;-145.18;100.00;60484.78;5030865;28;20029;-68
2022/04/28 08:35:36;;;;;;;10.25;4.38;;;;;;;-145.18;100.00;60484.78;5028065;28;20033;-68
2022/04/28 08:38:02;;;;;;;8.30;4.30;;;;;;;-145.18;100.00;60484.78;5031674;28;20040;-68
2022/04/28 08:40:27;;;;;;;11.23;4.20;;;;;;;-145.18;100.00;60484.78;5019033;28;20029;-69
2022/04/28 08:42:54;;;;;;;10.70;4.10;;;;;;;-145.18;100.00;60484.78;5012965;28;20080;-69
2022/04/28 08:45:28;;;;;;;9.93;3.85;;;;;;;-145.18;100.00;60484.78;5027384;28;20044;-68
2022/04/28 08:47:56;;;;;;;13.10;4.38;;;;;;;-145.18;100.00;60484.78;5023136;28;20104;-69
2022/04/28 08:50:22;;;;;;;8.00;4.20;;;;;;;-145.18;100.00;60484.78;5031147;28;20117;-69
2022/04/28 08:52:48;;;;;;;8.13;4.00;;;;;;;-145.18;100.00;60484.78;5012868;28;20115;-69
2022/04/28 08:55:15;;;;;;;9.05;3.75;;;;;;;-145.18;100.00;60484.78;5026605;28;20037;-69
2022/04/28 08:57:40;;;;;;;7.75;3.95;;;;;;;-145.18;100.00;60484.78;5026900;28;20030;-68
2022/04/28 09:00:06;;;;;;;14.20;4.15;;;;;;;-145.18;100.00;60484.78;5024858;28;20081;-69
2022/04/28 09:02:32;;;;;;;12.23;3.67;;;;;;;-145.18;100.00;60484.78;5024041;28;20096;-69
2022/04/28 09:05:00;;;;;;;9.50;3.83;;;;;;;-145.18;100.00;60484.78;5024346;28;20025;-69
2022/04/28 09:07:37;;;;;;;9.75;3.58;;;;;;;-145.18;100.00;60484.78;5030218;28;20033;-68
2022/04/28 09:10:24;;;;;;;9.02;4.18;;;;;;;-145.18;100.00;60484.78;5030856;28;20390;-69
2022/04/28 09:14:09;;;;;;;12.00;4.22;;;;;;;-145.18;100.00;60484.78;5030343;28;20040;-69
2022/04/28 09:15:48;;;;;;;9.75;4.25;;;;;;;-145.18;100.00;60484.78;5022880;28;20037;-69
2022/04/28 09:18:15;;;;;;;12.25;4.90;;;;;;;-145.18;100.00;60484.78;5030885;28;20025;-69
2022/04/28 09:20:41;;;;;;;7.50;4.45;;;;;;;-145.18;100.00;60484.78;5030659;28;20022;-68
2022/04/28 09:23:08;;;;;;;11.88;4.43;;;;;;;-145.18;100.00;60484.78;5024467;28;20087;-68
2022/04/28 09:25:33;;;;;;;10.73;4.38;;;;;;;-145.18;100.00;60484.78;5023501;28;20037;-68
2022/04/28 09:28:03;;;;;;;11.10;4.13;;;;;;;-145.18;100.00;60484.78;5030828;28;20037;-68
2022/04/28 09:30:56;;;;;;;8.75;3.40;;;;;;;-145.18;100.00;60484.78;5018389;28;20425;-69
2022/04/28 09:33:24;;;;;;;7.78;3.50;;;;;;;-145.18;100.00;60484.78;5025804;28;20071;-69
2022/04/28 09:35:51;;;;;;;8.48;3.88;;;;;;;-145.18;100.00;60484.78;5030783;28;20029;-69
2022/04/28 09:38:18;;;;;;;10.05;3.90;;;;;;;-145.18;100.00;60484.78;5016891;28;20018;-68
2022/04/28 09:43:32;;;;;;;8.20;3.10;;;;;;;-145.18;100.00;60484.78;5024751;28;20040;-68
2022/04/28 09:45:58;;;;;;;8.98;3.28;;;;;;;-145.18;100.00;60484.78;5029681;28;20029;-68
2022/04/28 09:48:27;;;;;;;7.07;3.45;;;;;;;-145.18;100.00;60484.78;5028014;28;20095;-68
2022/04/28 09:50:59;;;;;;;11.98;3.72;;;;;;;-145.18;100.00;60484.78;5018951;28;20056;-68
2022/04/28 09:53:26;;;;;;;12.55;3.50;;;;;;;-145.18;100.00;60484.78;5030745;28;20033;-68
2022/04/28 09:55:53;;;;;;;9.82;3.65;;;;;;;-145.18;100.00;60484.78;5024396;28;20033;-68
2022/04/28 09:58:21;;;;;;;9.18;3.63;;;;;;;-145.18;100.00;60484.78;5030387;28;20470;-68
2022/04/28 10:00:46;;;;;;;8.77;3.40;;;;;;;-145.18;100.00;60484.78;5026808;28;20127;-68
2022/04/28 10:03:13;;;;;;;8.40;3.72;;;;;;;-145.18;100.00;60484.78;5027729;28;20116;-68
2022/04/28 10:05:39;;;;;;;9.02;3.70;;;;;;;-145.18;100.00;60484.78;5028591;28;20022;-68
2022/04/28 10:08:05;;;;;;;11.27;3.92;;;;;;;-145.18;100.00;60484.78;5030828;28;20393;-68
2022/04/28 10:10:31;;;;;;;13.02;4.10;;;;;;;-145.18;100.00;60484.78;5026691;28;20039;-68
2022/04/28 10:13:00;;;;;;;8.70;3.85;;;;;;;-145.18;100.00;60484.78;5026162;28;20029;-68
2022/04/28 10:15:28;;;;;;;10.02;3.90;;;;;;;-145.18;100.00;60484.78;5026291;28;20072;-68
2022/04/28 10:17:59;;;;;;;10.13;3.90;;;;;;;-145.18;100.00;60484.78;5026790;28;20528;-68
2022/04/28 10:20:41;;;;;;;;;;;;;;;-145.18;100.00;60484.78;5033435;28;20470;-69
2022/04/28 10:23:10;;;;;;;9.65;4.32;;;;;;;-145.18;100.00;60484.78;5014628;28;19913;-68
2022/04/28 10:34:17;;;;;;;12.43;4.75;;;;;;;-145.18;100.00;60484.78;5014046;28;20150;-68
2022/04/28 10:36:55;;;;;;;11.07;4.20;;;;;;;-145.18;100.00;60484.78;5033676;28;20025;-68
2022/04/28 10:39:41;;;;;;;12.65;4.38;;;;;;;-145.18;100.00;60484.78;5031522;28;20143;-68
2022/04/28 10:42:21;;;;;;;8.70;3.60;;;;;;;-145.18;100.00;60484.78;5032346;28;20489;-68
2022/04/28 10:44:57;;;;;;;11.00;3.90;;;;;;;-145.18;100.00;60484.78;5027649;28;20057;-68
2022/04/28 10:47:41;;;;;;;7.95;3.72;;;;;;;-145.18;100.00;60484.78;5023376;28;20022;-68
2022/04/28 10:50:27;;;;;;;9.15;3.72;;;;;;;-145.18;100.00;60484.78;5024601;28;20328;-69
2022/04/28 10:53:01;;;;;;;12.13;3.90;;;;;;;-145.18;100.00;60484.78;5032048;28;20552;-68
2022/04/28 10:55:34;;;;;;;12.07;4.03;;;;;;;-145.18;100.00;60484.78;5022829;28;20030;-69
2022/04/28 10:58:22;;;;;;;7.82;4.00;;;;;;;-145.18;100.00;60484.78;5027044;28;20022;-69
2022/04/28 11:00:59;;;;;;;11.90;3.97;;;;;;;-145.18;100.00;60484.78;5023209;28;20079;-68
2022/04/28 11:03:50;;;;;;;9.60;4.10;;;;;;;-145.18;100.00;60484.78;5030215;28;20087;-69
2022/04/28 11:06:18;;;;;;;;;;;;;;;-145.18;100.00;60484.78;5025326;28;20056;-69
2022/04/28 11:08:53;;;;;;;13.40;4.55;;;;;;;-145.18;100.00;60484.78;5031888;28;19986;-68
2022/04/28 11:11:20;;;;;;;14.32;4.88;;;;;;;-145.18;100.00;60484.78;5032622;28;20111;-68
2022/04/28 11:13:50;;;;;;;15.38;5.20;;;;;;;-145.18;100.00;60484.78;5032690;28;20036;-68
2022/04/28 11:16:17;;;;;;;10.85;4.35;;;;;;;-145.18;100.00;60484.78;5026444;28;20037;-68
2022/04/28 11:18:43;;;;;;;11.55;4.93;;;;;;;-145.18;100.00;60484.78;5031580;28;20033;-68
2022/04/28 11:21:09;;;;;;;22.48;4.97;;;;;;;-145.18;100.00;60484.78;5030482;28;20026;-69
2022/04/28 11:23:42;;;;;;;14.15;4.72;;;;;;;-145.18;100.00;60484.78;5032838;28;20560;-69
2022/04/28 11:26:09;;;;;;;8.13;4.00;;;;;;;-145.18;100.00;60484.78;5022918;28;20028;-69
2022/04/28 11:28:36;;;;;;;9.88;4.05;;;;;;;-145.18;100.00;60484.78;5031082;28;20067;-69